Joaquin, Texas
Current Conditions -  °F | °C
As of 8:36 AM on Sunday 23 Nov 2014 (Local Time) from KSHV Reporting Station
Light Rain Light Rain  
Wind Chill: 62°   Ceiling: 1200
Heat Index: 62°   Visibility: 3mi
Dew Point: 61°   Wind: 7mph
Humidity: 96%   Direction: 200°SSW
Pressure: 29.58"   Gusts: NA
Location:  31.97°N, 94.05°W
Report Text: KSHV 231436Z 20006KT 3SM -RA BR SCT007 BKN012 OVC035 17/16 A2958 RMK AO2 P0004 T01670161
Loading
Personal Weather Stations






























Interactive Weather Map New forecast layout! Learn more

10-Day Weather Forecast

Advertisements
Track Severe Weather on mobile